createdAt,value
2018-11-14T00:00:59.507Z,8.37
2018-11-14T00:03:27.531Z,9.37
2018-11-14T00:05:55.608Z,8.93
2018-11-14T00:08:23.577Z,10.13
2018-11-14T00:10:51.746Z,9.10
2018-11-14T00:13:19.862Z,9.50
2018-11-14T00:15:47.922Z,9.80
2018-11-14T00:18:15.922Z,9.37
2018-11-14T00:20:43.941Z,9.23
2018-11-14T00:23:11.941Z,8.87
2018-11-14T00:25:39.946Z,8.77
2018-11-14T00:28:07.976Z,9.63
2018-11-14T00:30:35.949Z,9.23
2018-11-14T00:33:03.956Z,9.33
2018-11-14T00:35:31.977Z,9.53
2018-11-14T00:38:00.036Z,10.17
2018-11-14T00:40:28.025Z,9.00
2018-11-14T00:42:56.002Z,9.07
2018-11-14T00:45:23.981Z,9.93
2018-11-14T00:47:52.147Z,8.33
2018-11-14T00:50:20.706Z,9.80
2018-11-14T00:52:48.723Z,10.10
2018-11-14T00:55:18.891Z,9.83
2018-11-14T00:57:48.040Z,9.07
2018-11-14T01:00:19.016Z,10.33
2018-11-14T01:02:47.208Z,8.93
2018-11-14T01:05:16.236Z,9.67
2018-11-14T01:07:44.306Z,8.80
2018-11-14T01:10:14.168Z,9.93
2018-11-14T01:12:42.617Z,9.73
2018-11-14T01:15:13.091Z,9.23
2018-11-14T01:17:41.417Z,8.57
2018-11-14T01:20:11.457Z,8.57
2018-11-14T01:22:39.765Z,9.70
2018-11-14T01:25:09.036Z,9.37
2018-11-14T01:27:37.023Z,8.97
2018-11-14T01:30:08.350Z,8.97
2018-11-14T01:32:36.400Z,9.47
2018-11-14T01:35:05.213Z,8.57
2018-11-14T01:37:33.244Z,9.97
2018-11-14T01:40:01.165Z,8.60
2018-11-14T01:42:29.151Z,8.00
2018-11-14T01:45:13.860Z,8.80
2018-11-14T01:47:41.880Z,8.10
2018-11-14T01:50:10.337Z,8.87
2018-11-14T01:52:38.983Z,8.97
2018-11-14T01:55:08.314Z,9.00
2018-11-14T01:57:36.269Z,9.33
2018-11-14T02:00:05.599Z,8.93
2018-11-14T02:02:33.592Z,9.37
2018-11-14T02:05:01.526Z,8.97
2018-11-14T02:07:29.500Z,9.40
2018-11-14T02:09:57.485Z,8.30
2018-11-14T02:12:25.420Z,7.90
2018-11-14T02:14:53.379Z,9.30
2018-11-14T02:17:21.348Z,8.37
2018-11-14T02:19:49.331Z,9.03
2018-11-14T02:22:17.295Z,9.27
2018-11-14T02:24:45.357Z,9.00
2018-11-14T02:27:13.273Z,9.03
2018-11-14T02:29:41.291Z,8.67
2018-11-14T02:32:09.251Z,8.70
2018-11-14T02:34:37.241Z,9.10
2018-11-14T02:37:05.205Z,7.87
2018-11-14T02:39:33.215Z,8.70
2018-11-14T02:42:01.448Z,8.63
2018-11-14T02:44:29.435Z,7.90
2018-11-14T02:46:57.437Z,8.93
2018-11-14T02:49:25.427Z,8.63
2018-11-14T02:51:53.374Z,7.73
2018-11-14T02:54:21.338Z,7.90
2018-11-14T02:56:49.271Z,8.40
2018-11-14T02:59:17.223Z,7.77
2018-11-14T03:01:45.161Z,8.17
2018-11-14T03:04:13.157Z,8.90
2018-11-14T03:06:41.122Z,7.67
2018-11-14T03:09:09.157Z,8.03
2018-11-14T03:11:37.167Z,8.07
2018-11-14T03:14:05.898Z,7.63
2018-11-14T03:16:33.876Z,8.17
2018-11-14T03:19:01.787Z,7.63
2018-11-14T03:21:29.744Z,7.47
2018-11-14T03:23:57.700Z,7.77
2018-11-14T03:26:25.561Z,7.87
2018-11-14T03:28:53.504Z,7.43
2018-11-14T03:31:21.344Z,7.37
2018-11-14T03:33:49.201Z,7.50
2018-11-14T03:36:18.188Z,8.53
2018-11-14T03:38:46.395Z,8.77
2018-11-14T03:41:14.255Z,7.10
2018-11-14T03:43:42.079Z,8.40
2018-11-14T03:46:09.944Z,7.47
2018-11-14T03:48:37.750Z,7.83
2018-11-14T03:51:05.720Z,7.33
2018-11-14T03:53:33.622Z,8.23
2018-11-14T03:56:01.537Z,7.27
2018-11-14T03:58:29.422Z,7.70
2018-11-14T04:00:57.312Z,6.93
2018-11-14T04:03:25.146Z,7.00
2018-11-14T04:05:57.592Z,6.77
2018-11-14T04:08:25.687Z,7.77
2018-11-14T04:10:53.547Z,6.90
2018-11-14T04:13:21.445Z,7.07
2018-11-14T04:15:49.457Z,6.07
2018-11-14T04:18:17.303Z,6.83
2018-11-14T04:20:45.190Z,6.93
2018-11-14T04:23:13.038Z,6.80
2018-11-14T04:25:41.136Z,7.97
2018-11-14T04:28:09.181Z,6.20
2018-11-14T04:30:37.242Z,6.47
2018-11-14T04:33:05.539Z,7.13
2018-11-14T04:35:33.602Z,6.17
2018-11-14T04:38:01.635Z,6.00
2018-11-14T04:40:29.706Z,5.30
2018-11-14T04:42:57.650Z,7.10
2018-11-14T04:45:26.526Z,5.97
2018-11-14T04:47:54.774Z,6.03
2018-11-14T04:50:24.757Z,5.87
2018-11-14T04:52:53.024Z,5.30
2018-11-14T04:55:22.759Z,5.80
2018-11-14T04:57:51.127Z,5.30
2018-11-14T05:00:20.374Z,5.40
2018-11-14T05:02:49.027Z,5.50
2018-11-14T05:05:18.642Z,5.73
2018-11-14T05:07:47.135Z,6.33
2018-11-14T05:10:17.542Z,7.17
2018-11-14T05:12:46.259Z,6.07
2018-11-14T05:15:25.264Z,6.37
2018-11-14T05:17:53.897Z,5.93
2018-11-14T05:20:22.716Z,6.93
2018-11-14T05:22:51.424Z,6.47
2018-11-14T05:25:20.005Z,6.47
2018-11-14T05:27:48.058Z,7.23
2018-11-14T05:30:18.576Z,6.27
2018-11-14T05:32:48.023Z,7.87
2018-11-14T05:35:16.617Z,6.93
2018-11-14T05:37:45.416Z,6.03
2018-11-14T05:40:16.174Z,6.43
2018-11-14T05:42:45.340Z,7.00
2018-11-14T05:45:17.859Z,6.93
2018-11-14T05:47:46.598Z,5.87
2018-11-14T05:50:17.668Z,6.70
2018-11-14T05:52:46.602Z,6.57
2018-11-14T05:55:15.599Z,6.10
2018-11-14T05:57:44.141Z,7.33
2018-11-14T06:00:16.306Z,7.40
2018-11-14T06:02:46.257Z,6.00
2018-11-14T06:05:14.783Z,6.73
2018-11-14T06:07:43.455Z,6.70
2018-11-14T06:10:12.820Z,6.63
2018-11-14T06:12:42.139Z,7.33
2018-11-14T06:15:13.680Z,6.67
2018-11-14T06:17:43.164Z,5.90
2018-11-14T06:20:13.618Z,7.90
2018-11-14T06:22:43.000Z,7.17
2018-11-14T06:25:21.455Z,7.00
2018-11-14T06:27:51.073Z,6.53
2018-11-14T06:30:20.013Z,7.60
2018-11-14T06:32:48.807Z,7.13
2018-11-14T06:35:18.082Z,7.70
2018-11-14T06:37:47.187Z,7.27
2018-11-14T06:40:15.656Z,7.20
2018-11-14T06:42:44.752Z,7.23
2018-11-14T06:45:15.342Z,7.33
2018-11-14T06:47:46.260Z,6.50
2018-11-14T06:50:15.163Z,6.50
2018-11-14T06:52:44.384Z,6.97
2018-11-14T06:55:15.107Z,6.47
2018-11-14T06:57:43.743Z,8.17
2018-11-14T07:00:16.082Z,6.93
2018-11-14T07:02:45.642Z,6.90
2018-11-14T07:05:15.563Z,7.07
2018-11-14T07:07:44.655Z,6.90
2018-11-14T07:10:14.929Z,6.77
2018-11-14T07:12:43.552Z,6.77
2018-11-14T07:15:14.068Z,6.63
2018-11-14T07:17:43.208Z,6.60
2018-11-14T07:20:20.046Z,5.50
2018-11-14T07:22:48.628Z,6.10
2018-11-14T07:25:17.143Z,5.33
2018-11-14T07:27:45.776Z,5.53
2018-11-14T07:30:17.335Z,5.43
2018-11-14T07:32:47.337Z,5.37
2018-11-14T07:35:16.430Z,4.63
2018-11-14T07:38:52.321Z,4.80
2018-11-14T07:41:29.850Z,4.93
2018-11-14T07:43:58.446Z,4.90
2018-11-14T07:46:28.377Z,5.47
2018-11-14T07:48:57.040Z,5.23
2018-11-14T07:51:25.644Z,5.03
2018-11-14T07:53:54.216Z,5.37
2018-11-14T07:56:22.649Z,4.73
2018-11-14T07:58:51.331Z,4.57
2018-11-14T08:01:19.811Z,5.70
2018-11-14T08:03:48.807Z,4.33
2018-11-14T08:06:17.270Z,4.63
2018-11-14T08:08:46.211Z,4.33
2018-11-14T08:11:14.711Z,4.67
2018-11-14T08:13:44.986Z,4.70
2018-11-14T08:16:14.095Z,4.10
2018-11-14T08:18:42.877Z,4.67
2018-11-14T08:21:11.478Z,4.10
2018-11-14T08:23:40.009Z,4.40
2018-11-14T08:26:08.637Z,4.20
2018-11-14T08:28:37.072Z,5.10
2018-11-14T08:31:05.532Z,4.10
2018-11-14T08:33:33.961Z,3.93
2018-11-14T08:36:02.597Z,5.33
2018-11-14T08:38:31.081Z,4.13
2018-11-14T08:40:59.898Z,5.00
2018-11-14T08:43:28.375Z,5.40
2018-11-14T08:45:57.016Z,4.87
2018-11-14T08:48:25.668Z,4.93
2018-11-14T08:50:54.345Z,4.43
2018-11-14T08:53:22.895Z,5.07
2018-11-14T08:55:51.381Z,4.83
2018-11-14T08:58:19.777Z,5.10
2018-11-14T09:00:48.193Z,5.17
2018-11-14T09:03:16.613Z,4.93
2018-11-14T09:05:45.113Z,4.90
2018-11-14T09:08:13.554Z,5.37
2018-11-14T09:10:42.054Z,6.13
2018-11-14T09:13:15.359Z,4.27
2018-11-14T09:15:44.177Z,4.70
2018-11-14T09:18:12.890Z,4.77
2018-11-14T09:20:41.474Z,4.57
2018-11-14T09:23:10.032Z,4.97
2018-11-14T09:25:38.516Z,5.23
2018-11-14T09:28:07.016Z,5.10
2018-11-14T09:30:35.420Z,4.90
2018-11-14T09:33:03.861Z,5.37
2018-11-14T09:35:32.334Z,4.63
2018-11-14T09:38:01.397Z,4.90
2018-11-14T09:40:30.481Z,5.10
2018-11-14T09:42:58.925Z,5.10
2018-11-14T09:45:29.474Z,5.57
2018-11-14T09:47:58.193Z,4.93
2018-11-14T09:50:28.873Z,6.30
2018-11-14T09:52:58.833Z,5.53
2018-11-14T09:55:27.292Z,5.27
2018-11-14T09:57:55.743Z,4.43
2018-11-14T10:00:25.693Z,4.73
2018-11-14T10:02:55.825Z,5.50
2018-11-14T10:05:24.831Z,4.80
2018-11-14T10:07:53.402Z,4.57
2018-11-14T10:10:22.603Z,4.43
2018-11-14T10:12:51.463Z,4.60
2018-11-14T10:15:23.193Z,5.77
2018-11-14T10:17:51.908Z,4.90
2018-11-14T10:20:21.685Z,5.03
2018-11-14T10:22:50.466Z,5.60
2018-11-14T10:25:19.143Z,5.10
2018-11-14T10:27:48.229Z,5.23
2018-11-14T10:30:18.779Z,4.63
2018-11-14T10:32:47.849Z,5.00
2018-11-14T10:35:16.276Z,5.10
2018-11-14T10:37:44.957Z,4.53
2018-11-14T10:40:18.885Z,4.50
2018-11-14T10:42:47.608Z,4.63
2018-11-14T10:45:17.464Z,5.00
2018-11-14T10:47:45.996Z,3.90
2018-11-14T10:50:17.047Z,4.23
2018-11-14T10:52:45.586Z,4.10
2018-11-14T10:55:14.965Z,4.60
2018-11-14T10:57:43.543Z,4.87
2018-11-14T11:00:19.337Z,4.93
2018-11-14T11:02:53.347Z,4.87
2018-11-14T11:06:30.894Z,5.83
2018-11-14T11:09:04.683Z,4.37
2018-11-14T11:11:38.504Z,5.10
2018-11-14T11:14:12.265Z,4.90
2018-11-14T11:16:47.994Z,4.40
2018-11-14T11:19:18.117Z,4.53
2018-11-14T11:21:47.047Z,4.13
2018-11-14T11:24:17.048Z,4.03
2018-11-14T11:26:45.551Z,3.60
2018-11-14T11:29:14.089Z,4.20
2018-11-14T11:31:42.570Z,4.07
2018-11-14T11:34:11.827Z,4.23
2018-11-14T11:36:40.687Z,4.00
2018-11-14T11:39:14.266Z,4.23
2018-11-14T11:41:43.262Z,4.90
2018-11-14T11:44:12.400Z,3.50
2018-11-14T11:46:41.905Z,3.67
2018-11-14T11:49:11.025Z,4.03
2018-11-14T11:51:39.678Z,4.07
2018-11-14T11:54:08.703Z,3.70
2018-11-14T11:56:37.670Z,3.40
2018-11-14T11:59:07.092Z,3.73
2018-11-14T12:01:35.703Z,3.60
2018-11-14T12:04:04.541Z,3.87
2018-11-14T12:06:32.877Z,3.70
2018-11-14T12:09:01.488Z,2.90
2018-11-14T12:11:29.968Z,3.40
2018-11-14T12:13:58.650Z,3.63
2018-11-14T12:16:27.226Z,2.97
2018-11-14T12:18:56.341Z,2.50
2018-11-14T12:21:24.786Z,2.17
2018-11-14T12:23:53.219Z,2.77
2018-11-14T12:26:21.883Z,2.40
2018-11-14T12:28:50.321Z,2.57
2018-11-14T12:31:19.204Z,2.17
2018-11-14T12:33:48.166Z,2.70
2018-11-14T12:36:25.169Z,2.30
2018-11-14T12:38:54.144Z,2.20
2018-11-14T12:41:27.461Z,2.27
2018-11-14T12:43:56.280Z,2.10
2018-11-14T12:46:25.121Z,2.03
2018-11-14T12:48:53.621Z,2.40
2018-11-14T12:51:21.969Z,1.50
2018-11-14T12:53:50.441Z,2.20
2018-11-14T12:56:19.023Z,2.33
2018-11-14T12:58:47.526Z,1.87
2018-11-14T13:01:16.081Z,2.57
2018-11-14T13:03:44.462Z,2.57
2018-11-14T13:09:10.172Z,2.63
2018-11-14T13:11:40.910Z,2.10
2018-11-14T13:14:11.210Z,2.60
2018-11-14T13:16:40.673Z,2.10
2018-11-14T13:19:13.680Z,2.10
2018-11-14T13:21:47.361Z,1.93
2018-11-14T13:24:20.160Z,1.77
2018-11-14T13:26:50.741Z,1.70
2018-11-14T13:29:24.583Z,1.67
2018-11-14T13:31:56.051Z,2.03
2018-11-14T13:34:27.754Z,1.70
2018-11-14T13:37:01.466Z,2.30
2018-11-14T13:39:41.307Z,2.30
2018-11-14T13:42:14.641Z,1.80
2018-11-14T13:44:49.226Z,1.90
2018-11-14T13:47:22.051Z,1.40
2018-11-14T13:49:55.338Z,1.90
2018-11-14T13:52:29.766Z,1.70
2018-11-14T13:55:08.124Z,2.07
2018-11-14T13:57:36.960Z,1.80
2018-11-14T14:00:07.303Z,1.80
2018-11-14T14:02:35.669Z,2.37
2018-11-14T14:05:04.448Z,1.60
2018-11-14T14:07:33.091Z,2.10
2018-11-14T14:10:01.703Z,1.60
2018-11-14T14:12:30.327Z,2.17
2018-11-14T14:14:58.967Z,1.90
2018-11-14T14:17:27.641Z,1.87
2018-11-14T14:19:57.504Z,2.27
2018-11-14T14:22:26.230Z,2.37
2018-11-14T14:24:54.683Z,2.00
2018-11-14T14:27:23.321Z,1.80
2018-11-14T14:29:53.520Z,1.80
2018-11-14T14:32:23.210Z,1.50
2018-11-14T14:34:51.702Z,1.37
2018-11-14T14:37:20.598Z,1.90
2018-11-14T14:39:50.325Z,3.17
2018-11-14T14:42:18.823Z,2.00
2018-11-14T14:44:47.345Z,1.90
2018-11-14T14:47:17.710Z,1.93
2018-11-14T14:49:46.384Z,1.80
2018-11-14T14:52:18.103Z,2.07
2018-11-14T14:54:54.790Z,1.67
2018-11-14T14:57:23.785Z,2.00
2018-11-14T15:00:21.827Z,2.40
2018-11-14T15:02:50.863Z,2.40
2018-11-14T15:05:28.188Z,2.70
2018-11-14T15:07:56.823Z,3.83
2018-11-14T15:10:25.282Z,5.40
2018-11-14T15:12:54.348Z,5.63
2018-11-14T15:15:22.898Z,5.20
2018-11-14T15:17:58.387Z,5.37
2018-11-14T15:20:27.694Z,5.70
2018-11-14T15:22:56.244Z,5.07
2018-11-14T15:25:25.467Z,3.70
2018-11-14T15:27:56.149Z,3.43
2018-11-14T15:30:38.923Z,3.70
2018-11-14T15:33:07.733Z,3.53
2018-11-14T15:35:36.544Z,5.07
2018-11-14T15:38:05.200Z,6.07
2018-11-14T15:40:43.975Z,7.37
2018-11-14T15:43:13.108Z,7.57
2018-11-14T15:45:42.127Z,5.37
2018-11-14T15:48:10.621Z,5.10
2018-11-14T15:50:39.929Z,4.43
2018-11-14T15:53:10.222Z,3.80
2018-11-14T15:55:39.086Z,4.40
2018-11-14T15:58:07.986Z,3.60
2018-11-14T16:00:36.789Z,3.40
2018-11-14T16:03:06.387Z,3.07
2018-11-14T16:05:37.244Z,3.50
2018-11-14T16:08:06.122Z,4.10
2018-11-14T16:10:35.920Z,5.57
2018-11-14T16:13:05.891Z,5.33
2018-11-14T16:15:36.061Z,5.93
2018-11-14T16:18:05.167Z,5.97
2018-11-14T16:20:34.610Z,5.70
2018-11-14T16:23:04.069Z,4.50
2018-11-14T16:25:32.935Z,5.60
2018-11-14T16:28:02.204Z,5.63
2018-11-14T16:30:32.135Z,6.63
2018-11-14T16:33:03.142Z,4.80
2018-11-14T16:35:32.003Z,4.70
2018-11-14T16:38:00.801Z,4.73
2018-11-14T16:40:31.008Z,4.57
2018-11-14T16:43:00.849Z,4.17
2018-11-14T16:45:29.488Z,3.93
2018-11-14T16:47:58.260Z,4.50
2018-11-14T16:50:27.331Z,5.30
2018-11-14T16:52:56.309Z,7.30
2018-11-14T16:55:25.259Z,7.60
2018-11-14T16:57:55.756Z,9.37
2018-11-14T17:00:28.703Z,9.77
2018-11-14T17:02:57.322Z,9.70
2018-11-14T17:05:26.965Z,11.23
2018-11-14T17:07:55.490Z,10.77
2018-11-14T17:10:24.389Z,11.87
2018-11-14T17:12:55.462Z,12.03
2018-11-14T17:15:25.369Z,11.53
2018-11-14T17:17:54.989Z,11.80
2018-11-14T17:20:23.905Z,12.10
2018-11-14T17:22:53.561Z,12.03
2018-11-14T17:25:22.341Z,11.20
2018-11-14T17:27:51.074Z,12.13
2018-11-14T17:30:21.284Z,11.63
2018-11-14T17:32:49.944Z,13.30
2018-11-14T17:35:18.803Z,12.60
2018-11-14T17:37:47.668Z,12.23
2018-11-14T17:40:20.640Z,12.97
2018-11-14T17:42:50.226Z,12.77
2018-11-14T17:45:21.181Z,13.53
2018-11-14T17:47:50.879Z,12.10
2018-11-14T17:50:23.475Z,12.47
2018-11-14T17:52:52.870Z,10.93
2018-11-14T17:55:22.641Z,11.50
2018-11-14T17:57:51.541Z,12.00
2018-11-14T18:00:21.607Z,10.73
2018-11-14T18:02:50.342Z,12.37
2018-11-14T18:05:21.132Z,12.20
2018-11-14T18:07:50.747Z,13.10
2018-11-14T18:10:22.602Z,11.83
2018-11-14T18:12:52.161Z,11.57
2018-11-14T18:15:21.151Z,11.90
2018-11-14T18:17:50.805Z,11.13
2018-11-14T18:20:20.969Z,12.60
2018-11-14T18:22:50.268Z,12.47
2018-11-14T18:25:18.966Z,12.00
2018-11-14T18:27:47.702Z,11.90
2018-11-14T18:30:19.630Z,12.17
2018-11-14T18:32:56.767Z,12.30
2018-11-14T18:35:26.207Z,11.13
2018-11-14T18:37:55.960Z,11.97
2018-11-14T18:40:26.500Z,11.87
2018-11-14T18:42:55.441Z,12.13
2018-11-14T18:45:27.548Z,11.90
2018-11-14T18:47:57.100Z,10.30
2018-11-14T18:50:26.086Z,9.20
2018-11-14T18:52:54.659Z,10.77
2018-11-14T18:55:24.920Z,11.10
2018-11-14T18:57:53.487Z,10.47
2018-11-14T19:00:24.861Z,11.70
2018-11-14T19:02:53.549Z,12.43
2018-11-14T19:05:22.263Z,12.37
2018-11-14T19:07:50.912Z,11.40
2018-11-14T19:10:21.545Z,11.63
2018-11-14T19:12:50.799Z,10.27
2018-11-14T19:15:23.041Z,10.87
2018-11-14T19:17:52.043Z,9.57
2018-11-14T19:20:22.385Z,9.40
2018-11-14T19:22:51.240Z,8.60
2018-11-14T19:25:22.142Z,9.10
2018-11-14T19:27:50.795Z,9.20
2018-11-14T19:30:22.686Z,7.77
2018-11-14T19:32:52.345Z,9.00
2018-11-14T19:35:21.384Z,8.03
2018-11-14T19:37:51.119Z,8.63
2018-11-14T19:40:22.729Z,8.43
2018-11-14T19:42:53.647Z,8.30
2018-11-14T19:45:24.758Z,8.00
2018-11-14T19:47:53.698Z,8.27
2018-11-14T19:50:23.259Z,8.00
2018-11-14T19:52:51.916Z,7.73
2018-11-14T19:55:21.948Z,7.53
2018-11-14T19:57:51.979Z,8.20
2018-11-14T20:00:24.201Z,8.10
2018-11-14T20:02:53.820Z,7.83
2018-11-14T20:05:22.823Z,8.33
2018-11-14T20:07:51.776Z,7.10
2018-11-14T20:10:21.672Z,7.53
2018-11-14T20:12:51.080Z,7.93
2018-11-14T20:15:21.048Z,7.27
2018-11-14T20:17:53.408Z,7.67
2018-11-14T20:20:23.376Z,7.40
2018-11-14T20:22:51.936Z,8.33
2018-11-14T20:25:20.545Z,7.37
2018-11-14T20:27:49.135Z,8.27
2018-11-14T20:30:20.082Z,8.30
2018-11-14T20:32:49.464Z,8.47
2018-11-14T20:35:18.977Z,7.93
2018-11-14T20:37:47.636Z,8.40
2018-11-14T20:40:17.483Z,8.27
2018-11-14T20:42:46.801Z,8.23
2018-11-14T20:45:17.216Z,8.80
2018-11-14T20:47:45.796Z,7.60
2018-11-14T20:50:18.381Z,9.27
2018-11-14T20:52:48.105Z,8.30
2018-11-14T20:55:16.957Z,7.83
2018-11-14T20:57:45.596Z,8.13
2018-11-14T21:00:18.844Z,8.53
2018-11-14T21:02:47.954Z,9.10
2018-11-14T21:05:16.635Z,8.67
2018-11-14T21:07:45.573Z,8.83
2018-11-14T21:10:15.412Z,9.20
2018-11-14T21:12:44.886Z,9.27
2018-11-14T21:15:17.065Z,9.90
2018-11-14T21:17:46.376Z,9.80
2018-11-14T21:20:14.956Z,10.30
2018-11-14T21:22:44.011Z,9.40
2018-11-14T21:25:13.749Z,9.67
2018-11-14T21:27:43.375Z,9.30
2018-11-14T21:30:15.003Z,9.60
2018-11-14T21:32:43.754Z,9.33
2018-11-14T21:35:16.447Z,10.23
2018-11-14T21:37:46.093Z,11.50
2018-11-14T21:40:14.667Z,10.53
2018-11-14T21:42:43.170Z,11.87
2018-11-14T21:45:13.831Z,10.90
2018-11-14T21:47:47.572Z,11.53
2018-11-14T21:50:17.003Z,10.57
2018-11-14T21:52:45.555Z,10.53
2018-11-14T21:55:13.966Z,11.97
2018-11-14T21:57:42.472Z,11.73
2018-11-14T22:00:14.014Z,11.47
2018-11-14T22:02:43.905Z,10.73
2018-11-14T22:05:12.286Z,11.60
2018-11-14T22:07:40.500Z,12.30
2018-11-14T22:10:11.543Z,10.80
2018-11-14T22:12:40.228Z,11.43
2018-11-14T22:15:09.197Z,11.97
2018-11-14T22:17:38.063Z,12.07
2018-11-14T22:20:07.899Z,13.03
2018-11-14T22:22:35.935Z,15.77
2018-11-14T22:25:04.263Z,16.17
2018-11-14T22:27:32.373Z,14.27
2018-11-14T22:30:00.492Z,15.00
2018-11-14T22:32:28.949Z,14.63
2018-11-14T22:34:57.370Z,15.33
2018-11-14T22:37:25.413Z,15.03
2018-11-14T22:39:53.702Z,14.53
2018-11-14T22:42:22.772Z,14.83
2018-11-14T22:44:51.413Z,16.10
2018-11-14T22:47:19.662Z,17.53
2018-11-14T22:49:48.448Z,15.63
2018-11-14T22:52:16.879Z,15.43
2018-11-14T22:54:45.021Z,17.50
2018-11-14T22:57:13.067Z,17.10
2018-11-14T22:59:41.423Z,16.70
2018-11-14T23:02:09.966Z,16.53
2018-11-14T23:04:38.040Z,17.63
2018-11-14T23:07:06.267Z,17.17
2018-11-14T23:09:34.365Z,17.83
2018-11-14T23:12:02.469Z,17.93
2018-11-14T23:14:31.035Z,17.10
2018-11-14T23:16:59.208Z,17.27
2018-11-14T23:19:27.776Z,17.43
2018-11-14T23:21:56.007Z,18.17
2018-11-14T23:24:24.057Z,17.53
2018-11-14T23:26:52.154Z,19.90
2018-11-14T23:29:20.295Z,17.13
2018-11-14T23:31:48.328Z,20.83
2018-11-14T23:34:16.462Z,18.47
2018-11-14T23:36:44.512Z,17.37
2018-11-14T23:39:13.682Z,19.40
2018-11-14T23:41:41.728Z,18.47
2018-11-14T23:44:10.136Z,18.57
2018-11-14T23:46:38.590Z,18.27
2018-11-14T23:49:06.833Z,18.57
2018-11-14T23:51:35.153Z,18.13
2018-11-14T23:54:03.169Z,17.63
2018-11-14T23:56:31.227Z,18.43
2018-11-14T23:58:59.238Z,18.67
